sensor_id;sensor_type;location;lat;lon;timestamp;P1;durP1;ratioP1;P2;durP2;ratioP2
32106;SDS011;18622;51.998;10.440;2023-02-24T03:45:38;34.57;;;4.57;;
32106;SDS011;18622;51.998;10.440;2023-02-24T03:48:07;31.65;;;3.40;;
32106;SDS011;18622;51.998;10.440;2023-02-24T03:50:38;27.32;;;3.67;;
32106;SDS011;18622;51.998;10.440;2023-02-24T03:53:12;22.48;;;3.45;;
32106;SDS011;18622;51.998;10.440;2023-02-24T03:56:16;21.80;;;2.98;;
32106;SDS011;18622;51.998;10.440;2023-02-24T04:06:33;28.50;;;3.33;;
32106;SDS011;18622;51.998;10.440;2023-02-24T04:09:11;26.23;;;3.42;;
32106;SDS011;18622;51.998;10.440;2023-02-24T04:14:28;24.20;;;3.87;;
32106;SDS011;18622;51.998;10.440;2023-02-24T04:17:05;26.37;;;3.43;;
32106;SDS011;18622;51.998;10.440;2023-02-24T04:19:36;21.63;;;3.37;;
32106;SDS011;18622;51.998;10.440;2023-02-24T04:22:06;25.88;;;3.25;;
32106;SDS011;18622;51.998;10.440;2023-02-24T04:24:36;36.70;;;4.15;;
32106;SDS011;18622;51.998;10.440;2023-02-24T04:27:07;20.97;;;3.65;;
32106;SDS011;18622;51.998;10.440;2023-02-24T04:29:38;26.90;;;4.65;;
32106;SDS011;18622;51.998;10.440;2023-02-24T04:32:09;26.37;;;3.98;;
32106;SDS011;18622;51.998;10.440;2023-02-24T04:34:39;32.30;;;4.95;;
32106;SDS011;18622;51.998;10.440;2023-02-24T04:37:08;24.05;;;3.22;;
32106;SDS011;18622;51.998;10.440;2023-02-24T04:39:35;27.03;;;3.33;;
32106;SDS011;18622;51.998;10.440;2023-02-24T04:42:06;22.30;;;3.20;;
32106;SDS011;18622;51.998;10.440;2023-02-24T04:44:34;26.82;;;5.50;;
32106;SDS011;18622;51.998;10.440;2023-02-24T04:47:02;27.13;;;3.30;;
32106;SDS011;18622;51.998;10.440;2023-02-24T04:49:30;24.27;;;3.03;;
32106;SDS011;18622;51.998;10.440;2023-02-24T04:51:58;24.15;;;4.12;;
32106;SDS011;18622;51.998;10.440;2023-02-24T04:54:26;28.27;;;3.87;;
32106;SDS011;18622;51.998;10.440;2023-02-24T04:56:54;22.80;;;3.40;;
32106;SDS011;18622;51.998;10.440;2023-02-24T04:59:22;23.87;;;3.37;;
32106;SDS011;18622;51.998;10.440;2023-02-24T05:01:50;23.00;;;3.00;;
32106;SDS011;18622;51.998;10.440;2023-02-24T05:04:19;21.77;;;3.60;;
32106;SDS011;18622;51.998;10.440;2023-02-24T05:06:47;33.83;;;3.77;;
32106;SDS011;18622;51.998;10.440;2023-02-24T05:09:15;22.23;;;4.57;;
32106;SDS011;18622;51.998;10.440;2023-02-24T05:11:45;16.77;;;3.43;;
32106;SDS011;18622;51.998;10.440;2023-02-24T05:14:15;31.75;;;5.28;;
32106;SDS011;18622;51.998;10.440;2023-02-24T05:16:46;23.35;;;3.83;;
32106;SDS011;18622;51.998;10.440;2023-02-24T05:19:15;24.12;;;3.08;;
32106;SDS011;18622;51.998;10.440;2023-02-24T05:22:03;29.80;;;3.70;;
32106;SDS011;18622;51.998;10.440;2023-02-24T05:24:35;32.30;;;4.95;;
32106;SDS011;18622;51.998;10.440;2023-02-24T05:27:03;29.60;;;5.00;;
32106;SDS011;18622;51.998;10.440;2023-02-24T05:29:32;18.00;;;4.08;;
32106;SDS011;18622;51.998;10.440;2023-02-24T05:32:01;23.73;;;3.52;;
32106;SDS011;18622;51.998;10.440;2023-02-24T05:34:31;14.20;;;3.58;;
32106;SDS011;18622;51.998;10.440;2023-02-24T05:36:59;29.72;;;4.10;;
32106;SDS011;18622;51.998;10.440;2023-02-24T05:39:29;20.32;;;4.30;;
32106;SDS011;18622;51.998;10.440;2023-02-24T05:41:57;22.30;;;4.33;;
32106;SDS011;18622;51.998;10.440;2023-02-24T05:44:27;32.70;;;6.43;;
32106;SDS011;18622;51.998;10.440;2023-02-24T05:46:56;29.90;;;6.50;;
32106;SDS011;18622;51.998;10.440;2023-02-24T05:49:30;22.07;;;4.50;;
32106;SDS011;18622;51.998;10.440;2023-02-24T05:51:57;17.85;;;3.65;;
32106;SDS011;18622;51.998;10.440;2023-02-24T05:54:28;30.88;;;4.87;;
32106;SDS011;18622;51.998;10.440;2023-02-24T05:57:01;27.52;;;4.42;;
32106;SDS011;18622;51.998;10.440;2023-02-24T05:59:31;31.37;;;3.93;;
32106;SDS011;18622;51.998;10.440;2023-02-24T06:02:02;19.33;;;3.43;;
32106;SDS011;18622;51.998;10.440;2023-02-24T06:04:32;26.83;;;4.53;;
32106;SDS011;18622;51.998;10.440;2023-02-24T06:09:55;18.37;;;3.80;;
32106;SDS011;18622;51.998;10.440;2023-02-24T06:12:22;14.87;;;3.07;;
32106;SDS011;18622;51.998;10.440;2023-02-24T06:14:53;30.63;;;3.40;;
32106;SDS011;18622;51.998;10.440;2023-02-24T06:17:21;18.07;;;3.33;;
32106;SDS011;18622;51.998;10.440;2023-02-24T06:19:49;37.03;;;4.07;;
32106;SDS011;18622;51.998;10.440;2023-02-24T06:22:18;24.92;;;5.00;;
32106;SDS011;18622;51.998;10.440;2023-02-24T06:27:16;32.28;;;4.50;;
32106;SDS011;18622;51.998;10.440;2023-02-24T06:29:47;32.80;;;3.50;;
32106;SDS011;18622;51.998;10.440;2023-02-24T15:49:59;9.00;;;4.70;;
32106;SDS011;18622;51.998;10.440;2023-02-24T15:52:27;11.50;;;4.30;;
32106;SDS011;18622;51.998;10.440;2023-02-24T15:54:55;8.03;;;4.08;;
32106;SDS011;18622;51.998;10.440;2023-02-24T15:57:28;10.60;;;5.40;;
32106;SDS011;18622;51.998;10.440;2023-02-24T15:59:57;8.15;;;5.53;;
32106;SDS011;18622;51.998;10.440;2023-02-24T16:02:26;12.60;;;6.45;;
32106;SDS011;18622;51.998;10.440;2023-02-24T16:04:55;6.72;;;5.08;;
32106;SDS011;18622;51.998;10.440;2023-02-24T16:07:23;11.33;;;5.93;;
32106;SDS011;18622;51.998;10.440;2023-02-24T16:09:53;14.05;;;6.35;;
32106;SDS011;18622;51.998;10.440;2023-02-24T16:12:25;12.80;;;7.90;;
32106;SDS011;18622;51.998;10.440;2023-02-24T16:14:57;11.20;;;5.07;;
32106;SDS011;18622;51.998;10.440;2023-02-24T16:17:32;11.23;;;5.43;;
32106;SDS011;18622;51.998;10.440;2023-02-24T16:20:04;8.43;;;6.17;;
32106;SDS011;18622;51.998;10.440;2023-02-24T16:22:39;11.13;;;6.23;;
32106;SDS011;18622;51.998;10.440;2023-02-24T16:25:07;15.40;;;6.27;;
32106;SDS011;18622;51.998;10.440;2023-02-24T16:27:36;21.97;;;8.60;;
32106;SDS011;18622;51.998;10.440;2023-02-24T16:30:04;19.70;;;8.43;;
32106;SDS011;18622;51.998;10.440;2023-02-24T16:32:34;13.78;;;8.35;;
32106;SDS011;18622;51.998;10.440;2023-02-24T16:35:01;10.53;;;6.30;;
32106;SDS011;18622;51.998;10.440;2023-02-24T16:37:29;13.97;;;6.70;;
32106;SDS011;18622;51.998;10.440;2023-02-24T16:39:57;17.37;;;7.57;;
32106;SDS011;18622;51.998;10.440;2023-02-24T16:42:25;12.63;;;7.03;;
32106;SDS011;18622;51.998;10.440;2023-02-24T16:44:53;13.17;;;6.83;;
32106;SDS011;18622;51.998;10.440;2023-02-24T16:47:21;14.80;;;8.23;;
32106;SDS011;18622;51.998;10.440;2023-02-24T16:49:50;17.82;;;8.40;;
32106;SDS011;18622;51.998;10.440;2023-02-24T16:52:22;16.40;;;9.80;;
32106;SDS011;18622;51.998;10.440;2023-02-24T16:54:50;16.40;;;8.47;;
32106;SDS011;18622;51.998;10.440;2023-02-24T16:57:18;15.80;;;8.17;;
32106;SDS011;18622;51.998;10.440;2023-02-24T16:59:48;16.45;;;7.70;;
32106;SDS011;18622;51.998;10.440;2023-02-24T17:02:17;13.75;;;8.15;;
32106;SDS011;18622;51.998;10.440;2023-02-24T17:04:46;23.67;;;8.53;;
32106;SDS011;18622;51.998;10.440;2023-02-24T17:07:14;16.13;;;9.43;;
32106;SDS011;18622;51.998;10.440;2023-02-24T17:09:43;16.60;;;7.57;;
32106;SDS011;18622;51.998;10.440;2023-02-24T17:12:14;17.53;;;9.93;;
32106;SDS011;18622;51.998;10.440;2023-02-24T17:14:45;15.90;;;9.57;;
32106;SDS011;18622;51.998;10.440;2023-02-24T17:17:13;19.43;;;10.80;;
32106;SDS011;18622;51.998;10.440;2023-02-24T17:19:40;18.20;;;10.47;;
32106;SDS011;18622;51.998;10.440;2023-02-24T17:22:08;19.77;;;11.43;;
32106;SDS011;18622;51.998;10.440;2023-02-24T17:24:36;18.17;;;11.00;;
32106;SDS011;18622;51.998;10.440;2023-02-24T17:27:04;20.87;;;11.10;;
32106;SDS011;18622;51.998;10.440;2023-02-24T17:29:32;19.57;;;12.15;;
32106;SDS011;18622;51.998;10.440;2023-02-24T17:32:00;21.87;;;11.97;;
32106;SDS011;18622;51.998;10.440;2023-02-24T17:34:28;16.50;;;12.37;;
32106;SDS011;18622;51.998;10.440;2023-02-24T17:36:56;25.63;;;13.73;;
32106;SDS011;18622;51.998;10.440;2023-02-24T17:39:24;20.00;;;12.23;;
32106;SDS011;18622;51.998;10.440;2023-02-24T17:41:51;23.50;;;13.10;;
32106;SDS011;18622;51.998;10.440;2023-02-24T17:44:20;18.40;;;12.33;;
32106;SDS011;18622;51.998;10.440;2023-02-24T17:46:48;23.57;;;13.07;;
32106;SDS011;18622;51.998;10.440;2023-02-24T17:49:16;27.37;;;14.95;;
32106;SDS011;18622;51.998;10.440;2023-02-24T17:51:44;28.03;;;15.00;;
32106;SDS011;18622;51.998;10.440;2023-02-24T17:54:12;24.00;;;15.67;;
32106;SDS011;18622;51.998;10.440;2023-02-24T17:56:40;20.83;;;14.03;;
32106;SDS011;18622;51.998;10.440;2023-02-24T17:59:08;23.13;;;13.97;;
32106;SDS011;18622;51.998;10.440;2023-02-24T18:01:35;21.20;;;12.90;;
32106;SDS011;18622;51.998;10.440;2023-02-24T18:04:03;26.90;;;18.43;;
32106;SDS011;18622;51.998;10.440;2023-02-24T18:06:31;26.23;;;18.03;;
32106;SDS011;18622;51.998;10.440;2023-02-24T18:08:59;25.67;;;16.13;;
32106;SDS011;18622;51.998;10.440;2023-02-24T18:11:26;27.53;;;16.83;;
32106;SDS011;18622;51.998;10.440;2023-02-24T18:13:54;26.40;;;16.20;;
32106;SDS011;18622;51.998;10.440;2023-02-24T18:16:24;25.88;;;15.53;;
32106;SDS011;18622;51.998;10.440;2023-02-24T18:18:52;22.10;;;14.47;;
32106;SDS011;18622;51.998;10.440;2023-02-24T18:21:20;26.40;;;15.77;;
32106;SDS011;18622;51.998;10.440;2023-02-24T18:23:48;25.50;;;15.27;;
32106;SDS011;18622;51.998;10.440;2023-02-24T18:26:16;21.63;;;13.93;;
32106;SDS011;18622;51.998;10.440;2023-02-24T18:28:43;23.47;;;13.20;;
32106;SDS011;18622;51.998;10.440;2023-02-24T18:31:17;23.00;;;15.17;;
32106;SDS011;18622;51.998;10.440;2023-02-24T18:33:42;24.15;;;15.30;;
32106;SDS011;18622;51.998;10.440;2023-02-24T18:36:10;21.25;;;15.15;;
32106;SDS011;18622;51.998;10.440;2023-02-24T18:38:38;22.90;;;13.10;;
32106;SDS011;18622;51.998;10.440;2023-02-24T18:41:07;21.97;;;13.57;;
32106;SDS011;18622;51.998;10.440;2023-02-24T18:43:37;21.10;;;14.07;;
32106;SDS011;18622;51.998;10.440;2023-02-24T18:46:06;18.67;;;12.37;;
32106;SDS011;18622;51.998;10.440;2023-02-24T18:48:34;26.68;;;14.43;;
32106;SDS011;18622;51.998;10.440;2023-02-24T18:51:02;18.27;;;12.43;;
32106;SDS011;18622;51.998;10.440;2023-02-24T18:53:31;17.53;;;12.53;;
32106;SDS011;18622;51.998;10.440;2023-02-24T18:56:07;20.47;;;13.90;;
32106;SDS011;18622;51.998;10.440;2023-02-24T18:58:46;22.43;;;14.03;;
32106;SDS011;18622;51.998;10.440;2023-02-24T19:01:15;18.48;;;12.68;;
32106;SDS011;18622;51.998;10.440;2023-02-24T19:03:45;27.75;;;16.07;;
32106;SDS011;18622;51.998;10.440;2023-02-24T19:06:15;22.05;;;14.98;;
32106;SDS011;18622;51.998;10.440;2023-02-24T19:08:46;31.77;;;16.23;;
32106;SDS011;18622;51.998;10.440;2023-02-24T19:11:17;27.80;;;16.40;;
32106;SDS011;18622;51.998;10.440;2023-02-24T19:13:46;23.80;;;16.87;;
32106;SDS011;18622;51.998;10.440;2023-02-24T19:16:14;22.70;;;13.20;;
32106;SDS011;18622;51.998;10.440;2023-02-24T19:18:43;22.95;;;16.48;;
32106;SDS011;18622;51.998;10.440;2023-02-24T19:21:13;26.95;;;16.50;;
32106;SDS011;18622;51.998;10.440;2023-02-24T19:23:41;22.70;;;13.70;;
32106;SDS011;18622;51.998;10.440;2023-02-24T19:26:15;26.80;;;15.00;;
32106;SDS011;18622;51.998;10.440;2023-02-24T19:28:45;36.50;;;20.13;;
32106;SDS011;18622;51.998;10.440;2023-02-24T19:31:15;31.30;;;16.30;;
32106;SDS011;18622;51.998;10.440;2023-02-24T19:33:44;35.90;;;20.23;;
32106;SDS011;18622;51.998;10.440;2023-02-24T19:36:13;25.23;;;15.57;;
32106;SDS011;18622;51.998;10.440;2023-02-24T19:38:41;30.63;;;17.67;;
32106;SDS011;18622;51.998;10.440;2023-02-24T19:41:09;28.17;;;14.47;;
32106;SDS011;18622;51.998;10.440;2023-02-24T19:43:37;25.00;;;12.87;;
32106;SDS011;18622;51.998;10.440;2023-02-24T19:46:08;24.85;;;16.00;;
32106;SDS011;18622;51.998;10.440;2023-02-24T19:48:37;27.75;;;16.42;;
32106;SDS011;18622;51.998;10.440;2023-02-24T19:51:14;27.02;;;15.50;;
32106;SDS011;18622;51.998;10.440;2023-02-24T19:53:42;30.13;;;13.57;;
32106;SDS011;18622;51.998;10.440;2023-02-24T19:56:10;26.23;;;12.87;;
32106;SDS011;18622;51.998;10.440;2023-02-24T19:58:39;24.02;;;13.58;;
32106;SDS011;18622;51.998;10.440;2023-02-24T20:01:07;25.17;;;12.53;;
32106;SDS011;18622;51.998;10.440;2023-02-24T20:03:36;25.50;;;10.58;;
32106;SDS011;18622;51.998;10.440;2023-02-24T20:06:14;23.30;;;10.70;;
32106;SDS011;18622;51.998;10.440;2023-02-24T20:08:45;20.07;;;9.47;;
32106;SDS011;18622;51.998;10.440;2023-02-24T20:11:13;27.97;;;10.60;;
32106;SDS011;18622;51.998;10.440;2023-02-24T20:13:41;25.07;;;12.17;;
32106;SDS011;18622;51.998;10.440;2023-02-24T20:16:10;16.60;;;8.70;;
32106;SDS011;18622;51.998;10.440;2023-02-24T20:18:39;29.98;;;8.88;;
32106;SDS011;18622;51.998;10.440;2023-02-24T20:21:08;19.73;;;8.55;;
32106;SDS011;18622;51.998;10.440;2023-02-24T20:23:36;19.13;;;8.33;;
32106;SDS011;18622;51.998;10.440;2023-02-24T20:26:04;19.55;;;7.20;;
32106;SDS011;18622;51.998;10.440;2023-02-24T20:28:32;17.93;;;7.33;;
32106;SDS011;18622;51.998;10.440;2023-02-24T20:31:04;18.10;;;6.90;;
32106;SDS011;18622;51.998;10.440;2023-02-24T20:33:34;11.83;;;3.53;;
32106;SDS011;18622;51.998;10.440;2023-02-24T20:36:05;22.87;;;4.60;;
32106;SDS011;18622;51.998;10.440;2023-02-24T20:38:37;20.87;;;4.97;;
32106;SDS011;18622;51.998;10.440;2023-02-24T20:41:05;24.90;;;6.40;;
32106;SDS011;18622;51.998;10.440;2023-02-24T20:43:33;27.37;;;2.83;;
32106;SDS011;18622;51.998;10.440;2023-02-24T20:46:11;28.27;;;4.33;;
32106;SDS011;18622;51.998;10.440;2023-02-24T20:48:41;21.37;;;2.75;;
32106;SDS011;18622;51.998;10.440;2023-02-24T20:51:09;26.53;;;3.60;;
32106;SDS011;18622;51.998;10.440;2023-02-24T20:53:37;23.45;;;4.35;;
32106;SDS011;18622;51.998;10.440;2023-02-24T20:56:06;21.33;;;3.80;;
32106;SDS011;18622;51.998;10.440;2023-02-24T20:58:40;18.57;;;3.00;;
32106;SDS011;18622;51.998;10.440;2023-02-24T21:01:09;25.57;;;3.63;;
32106;SDS011;18622;51.998;10.440;2023-02-24T21:03:37;32.15;;;4.30;;
32106;SDS011;18622;51.998;10.440;2023-02-24T21:06:05;18.63;;;4.03;;
32106;SDS011;18622;51.998;10.440;2023-02-24T21:08:34;19.77;;;3.85;;
32106;SDS011;18622;51.998;10.440;2023-02-24T21:11:02;29.00;;;3.90;;
32106;SDS011;18622;51.998;10.440;2023-02-24T21:16:04;23.18;;;4.37;;
32106;SDS011;18622;51.998;10.440;2023-02-24T21:21:01;14.43;;;3.80;;
32106;SDS011;18622;51.998;10.440;2023-02-24T21:23:29;31.80;;;4.40;;
32106;SDS011;18622;51.998;10.440;2023-02-24T21:25:57;24.83;;;3.87;;
32106;SDS011;18622;51.998;10.440;2023-02-24T21:28:25;29.23;;;4.43;;
32106;SDS011;18622;51.998;10.440;2023-02-24T21:30:53;34.23;;;6.10;;
32106;SDS011;18622;51.998;10.440;2023-02-24T21:33:21;23.87;;;3.67;;
32106;SDS011;18622;51.998;10.440;2023-02-24T21:36:01;39.93;;;6.80;;
32106;SDS011;18622;51.998;10.440;2023-02-24T21:38:28;37.83;;;5.17;;
32106;SDS011;18622;51.998;10.440;2023-02-24T21:41:02;23.27;;;3.40;;
